Time;durP1;ratioP1;P1;durP2;ratioP2;P2;SDS_P1;SDS_P2;PMS_P1;PMS_P2;Temp;Humidity;BMP_temperature;BMP_pressure;BME280_temperature;BME280_humidity;BME280_pressure;Samples;Min_cycle;Max_cycle;Signal;HPM_P1;HPM_P2
2022/10/11 00:01:03;;;;;;;2.40;1.70;;;;;;;;;;5049172;28;20237;-55
2022/10/11 00:03:29;;;;;;;2.33;1.83;;;;;;;;;;5050122;28;20512;-56
2022/10/11 00:05:56;;;;;;;2.87;2.00;;;;;;;;;;5051996;28;20254;-56
2022/10/11 00:08:22;;;;;;;2.53;1.90;;;;;;;;;;5049752;28;20233;-55
2022/10/11 00:11:00;;;;;;;2.97;1.60;;;;;;;;;;5041550;28;20769;-57
2022/10/11 00:13:26;;;;;;;2.50;1.90;;;;;;;;;;5050015;28;20636;-58
2022/10/11 00:15:53;;;;;;;2.23;1.80;;;;;;;;;;5047382;28;20626;-56
2022/10/11 00:18:19;;;;;;;2.70;2.20;;;;;;;;;;5049889;28;20230;-55
2022/10/11 00:20:46;;;;;;;2.70;1.90;;;;;;;;;;5051011;28;20198;-55
2022/10/11 00:23:12;;;;;;;2.53;2.00;;;;;;;;;;5042282;28;20254;-55
2022/10/11 00:25:38;;;;;;;1.60;1.50;;;;;;;;;;5047857;28;20254;-54
2022/10/11 00:28:05;;;;;;;3.30;2.00;;;;;;;;;;5051718;28;20525;-55
2022/10/11 00:30:32;;;;;;;2.20;1.97;;;;;;;;;;5056309;28;20195;-55
2022/10/11 00:32:58;;;;;;;3.10;2.20;;;;;;;;;;5045686;28;20277;-54
2022/10/11 00:35:25;;;;;;;2.43;1.70;;;;;;;;;;5053510;28;20222;-54
2022/10/11 00:37:51;;;;;;;3.13;1.90;;;;;;;;;;5048658;28;20241;-54
2022/10/11 00:40:19;;;;;;;2.57;1.67;;;;;;;;;;5045774;28;20297;-54
2022/10/11 00:42:45;;;;;;;2.33;1.93;;;;;;;;;;5041675;28;20267;-52
2022/10/11 00:45:30;;;;;;;2.37;2.10;;;;;;;;;;5051146;28;20697;-54
2022/10/11 00:48:03;;;;;;;2.37;2.00;;;;;;;;;;5047273;28;20230;-52
2022/10/11 00:50:32;;;;;;;2.43;1.80;;;;;;;;;;5040172;28;20226;-54
2022/10/11 00:53:00;;;;;;;2.10;1.80;;;;;;;;;;5061673;28;20258;-54
2022/10/11 00:55:32;;;;;;;2.23;1.87;;;;;;;;;;5046942;28;20281;-53
2022/10/11 00:57:58;;;;;;;1.80;1.63;;;;;;;;;;5042387;28;20250;-56
2022/10/11 01:00:25;;;;;;;2.40;1.87;;;;;;;;;;5047947;28;20223;-53
2022/10/11 01:02:51;;;;;;;2.80;2.00;;;;;;;;;;5047408;28;20746;-53
2022/10/11 01:05:18;;;;;;;2.10;1.70;;;;;;;;;;5053511;28;20226;-54
2022/10/11 01:07:56;;;;;;;2.13;1.87;;;;;;;;;;5038686;28;20285;-55
2022/10/11 01:10:23;;;;;;;2.17;1.73;;;;;;;;;;5048118;28;20242;-52
2022/10/11 01:13:06;;;;;;;2.93;2.00;;;;;;;;;;5046582;28;20251;-53
2022/10/11 01:15:39;;;;;;;2.80;1.93;;;;;;;;;;5045805;28;20242;-53
2022/10/11 01:18:30;;;;;;;2.53;1.90;;;;;;;;;;5049000;28;20241;-51
2022/10/11 01:21:01;;;;;;;2.57;1.90;;;;;;;;;;5050368;28;20231;-54
2022/10/11 01:24:05;;;;;;;2.10;1.63;;;;;;;;;;5042793;28;20309;-55
2022/10/11 01:26:52;;;;;;;2.20;1.80;;;;;;;;;;5046759;28;20265;-55
2022/10/11 01:29:21;;;;;;;2.60;2.10;;;;;;;;;;5035230;28;20250;-55
2022/10/11 01:31:47;;;;;;;2.03;1.73;;;;;;;;;;5047979;28;20203;-57
2022/10/11 01:34:21;;;;;;;1.97;1.70;;;;;;;;;;5044206;28;20301;-55
2022/10/11 01:36:54;;;;;;;2.20;1.80;;;;;;;;;;5047788;28;20242;-53
2022/10/11 01:39:29;;;;;;;2.13;1.93;;;;;;;;;;5050227;28;20226;-53
2022/10/11 01:41:59;;;;;;;2.27;1.80;;;;;;;;;;5035651;28;20234;-55
2022/10/11 01:44:26;;;;;;;2.00;1.80;;;;;;;;;;5044739;28;20257;-55
2022/10/11 01:46:53;;;;;;;2.00;1.80;;;;;;;;;;5046333;28;20250;-54
2022/10/11 01:49:20;;;;;;;1.93;1.70;;;;;;;;;;5042726;28;20223;-54
2022/10/11 01:51:51;;;;;;;2.27;1.80;;;;;;;;;;5047244;28;20355;-53
2022/10/11 01:54:32;;;;;;;2.37;1.80;;;;;;;;;;5043856;28;20271;-55
2022/10/11 01:57:56;;;;;;;1.90;1.60;;;;;;;;;;5036999;28;20199;-55
2022/10/11 02:00:25;;;;;;;3.00;2.00;;;;;;;;;;5043260;28;20226;-55
2022/10/11 02:03:00;;;;;;;2.30;1.67;;;;;;;;;;5043890;28;20219;-56
2022/10/11 02:05:36;;;;;;;2.60;1.77;;;;;;;;;;5040450;28;20233;-54
2022/10/11 02:08:28;;;;;;;1.87;1.77;;;;;;;;;;5040946;28;20222;-55
2022/10/11 02:11:03;;;;;;;2.03;1.60;;;;;;;;;;5045787;28;20226;-58
2022/10/11 02:13:39;;;;;;;2.17;1.80;;;;;;;;;;5027720;28;20242;-58
2022/10/11 02:16:09;;;;;;;2.10;1.60;;;;;;;;;;5042098;28;20238;-53
2022/10/11 02:18:44;;;;;;;2.30;1.80;;;;;;;;;;5043174;28;20229;-53
2022/10/11 02:21:13;;;;;;;2.30;2.00;;;;;;;;;;5043830;28;20227;-52
2022/10/11 02:23:44;;;;;;;2.30;1.90;;;;;;;;;;5041474;28;20247;-54
2022/10/11 02:26:11;;;;;;;2.83;1.90;;;;;;;;;;5048289;28;20253;-53
2022/10/11 02:28:40;;;;;;;3.00;2.10;;;;;;;;;;5045140;28;20710;-54
2022/10/11 02:31:10;;;;;;;2.00;1.73;;;;;;;;;;5043268;28;20260;-55
2022/10/11 02:33:40;;;;;;;2.37;1.80;;;;;;;;;;5042013;28;20326;-55
2022/10/11 02:36:13;;;;;;;1.93;1.50;;;;;;;;;;5044389;28;20230;-55
2022/10/11 02:38:44;;;;;;;1.93;1.73;;;;;;;;;;5043858;28;20286;-56
2022/10/11 02:41:31;;;;;;;2.27;1.77;;;;;;;;;;5026351;28;20305;-54
2022/10/11 02:44:02;;;;;;;2.33;1.80;;;;;;;;;;5047335;28;20258;-54
2022/10/11 02:46:29;;;;;;;2.27;1.73;;;;;;;;;;5048516;28;20309;-57
2022/10/11 02:48:58;;;;;;;1.60;1.50;;;;;;;;;;5042280;28;20227;-57
2022/10/11 02:51:26;;;;;;;2.53;1.80;;;;;;;;;;5045646;28;20718;-51
2022/10/11 02:53:52;;;;;;;1.90;1.50;;;;;;;;;;5044550;28;20253;-54
2022/10/11 02:56:18;;;;;;;1.70;1.60;;;;;;;;;;5039925;28;20187;-54
2022/10/11 02:58:45;;;;;;;2.33;1.90;;;;;;;;;;5037483;28;20910;-57
2022/10/11 03:01:11;;;;;;;1.73;1.57;;;;;;;;;;5046266;28;20282;-57
2022/10/11 03:03:38;;;;;;;2.30;1.60;;;;;;;;;;5039061;28;20237;-58
2022/10/11 03:06:04;;;;;;;2.07;1.70;;;;;;;;;;5037741;28;20315;-54
2022/10/11 03:08:32;;;;;;;2.03;1.67;;;;;;;;;;5047977;28;20191;-57
2022/10/11 03:10:58;;;;;;;1.70;1.60;;;;;;;;;;5045705;28;20225;-56
2022/10/11 03:13:25;;;;;;;1.97;1.60;;;;;;;;;;5041519;28;20245;-55
2022/10/11 03:15:53;;;;;;;3.63;2.30;;;;;;;;;;5042306;28;20195;-53
2022/10/11 03:18:29;;;;;;;2.07;1.67;;;;;;;;;;5047407;28;20312;-56
2022/10/11 03:20:55;;;;;;;1.77;1.57;;;;;;;;;;5048813;28;20624;-51
2022/10/11 03:23:22;;;;;;;2.00;1.77;;;;;;;;;;5042200;28;20245;-55
2022/10/11 03:25:50;;;;;;;2.27;1.70;;;;;;;;;;5048597;28;20210;-54
2022/10/11 03:28:17;;;;;;;2.07;1.70;;;;;;;;;;5051318;28;20231;-52
2022/10/11 03:30:46;;;;;;;2.07;1.70;;;;;;;;;;5041624;28;20206;-51
2022/10/11 03:33:13;;;;;;;1.60;1.47;;;;;;;;;;5047589;28;20250;-51
2022/10/11 03:35:39;;;;;;;2.07;1.60;;;;;;;;;;5049243;28;20285;-51
2022/10/11 03:38:06;;;;;;;2.20;1.80;;;;;;;;;;5048943;28;20609;-56
2022/10/11 03:40:38;;;;;;;1.60;1.40;;;;;;;;;;5049450;28;20247;-58
2022/10/11 03:43:04;;;;;;;2.77;1.50;;;;;;;;;;5051434;28;20306;-57
2022/10/11 03:45:30;;;;;;;1.77;1.50;;;;;;;;;;5042173;28;20283;-55
2022/10/11 03:47:57;;;;;;;1.73;1.63;;;;;;;;;;5052146;28;20252;-56
2022/10/11 03:50:23;;;;;;;2.20;1.63;;;;;;;;;;5048744;28;20277;-56
2022/10/11 03:52:50;;;;;;;2.20;1.60;;;;;;;;;;5048024;28;20257;-53
2022/10/11 03:55:16;;;;;;;2.27;1.60;;;;;;;;;;5052272;28;20235;-51
2022/10/11 03:57:42;;;;;;;2.10;1.60;;;;;;;;;;5051668;28;20230;-55
2022/10/11 04:00:09;;;;;;;2.13;1.60;;;;;;;;;;5048468;28;20237;-55
2022/10/11 04:02:35;;;;;;;1.63;1.33;;;;;;;;;;5051210;28;20237;-54
2022/10/11 04:05:05;;;;;;;1.80;1.53;;;;;;;;;;5045694;28;20194;-53
2022/10/11 04:07:32;;;;;;;1.40;1.30;;;;;;;;;;5048393;28;20318;-54
2022/10/11 04:09:58;;;;;;;2.20;1.63;;;;;;;;;;5058049;28;20198;-54
2022/10/11 04:12:25;;;;;;;1.80;1.50;;;;;;;;;;5048972;28;20190;-54
2022/10/11 04:14:52;;;;;;;1.90;1.60;;;;;;;;;;5047716;28;20237;-56
2022/10/11 04:17:18;;;;;;;2.20;1.57;;;;;;;;;;5054921;28;20222;-55
2022/10/11 04:19:45;;;;;;;1.70;1.40;;;;;;;;;;5043792;28;20235;-57
2022/10/11 04:22:11;;;;;;;1.67;1.50;;;;;;;;;;5043747;28;20250;-54
2022/10/11 04:24:37;;;;;;;1.73;1.57;;;;;;;;;;5043498;28;20283;-52
2022/10/11 04:27:05;;;;;;;1.60;1.40;;;;;;;;;;5048770;28;20276;-55
2022/10/11 04:29:31;;;;;;;2.23;1.53;;;;;;;;;;5050915;28;20222;-54
2022/10/11 04:31:58;;;;;;;2.00;1.50;;;;;;;;;;5041873;28;20199;-53
2022/10/11 04:34:24;;;;;;;1.40;1.30;;;;;;;;;;5045229;28;21340;-54
2022/10/11 04:36:51;;;;;;;1.83;1.50;;;;;;;;;;5050071;28;20663;-54
2022/10/11 04:39:17;;;;;;;2.47;1.47;;;;;;;;;;5045677;28;20232;-54
2022/10/11 04:41:44;;;;;;;1.87;1.47;;;;;;;;;;5046323;28;20234;-53
2022/10/11 04:44:10;;;;;;;1.97;1.50;;;;;;;;;;5048276;28;20668;-54
2022/10/11 04:46:36;;;;;;;1.90;1.57;;;;;;;;;;5046876;28;20305;-55
2022/10/11 04:49:03;;;;;;;1.70;1.30;;;;;;;;;;5045022;28;20286;-53
2022/10/11 04:51:29;;;;;;;1.53;1.40;;;;;;;;;;5052509;28;20226;-51
2022/10/11 04:53:55;;;;;;;1.50;1.40;;;;;;;;;;5050593;28;20257;-54
2022/10/11 04:56:22;;;;;;;1.67;1.47;;;;;;;;;;5046909;28;20234;-54
2022/10/11 04:58:52;;;;;;;2.03;1.60;;;;;;;;;;5046504;28;20378;-51
2022/10/11 05:01:19;;;;;;;2.37;1.50;;;;;;;;;;5052844;28;20218;-54
2022/10/11 05:03:46;;;;;;;2.07;1.50;;;;;;;;;;5049064;28;20253;-56
2022/10/11 05:06:13;;;;;;;2.13;1.60;;;;;;;;;;5046502;28;20276;-53
2022/10/11 05:08:40;;;;;;;1.50;1.40;;;;;;;;;;5044391;28;20223;-54
2022/10/11 05:11:12;;;;;;;2.33;1.33;;;;;;;;;;5047333;28;20229;-52
2022/10/11 05:13:42;;;;;;;2.10;1.50;;;;;;;;;;5043986;28;20276;-54
2022/10/11 05:16:08;;;;;;;1.87;1.40;;;;;;;;;;5045141;28;20601;-54
2022/10/11 05:18:37;;;;;;;2.13;1.50;;;;;;;;;;5043729;28;20245;-51
2022/10/11 05:21:19;;;;;;;1.97;1.50;;;;;;;;;;5036749;28;20757;-56
2022/10/11 05:23:47;;;;;;;1.83;1.30;;;;;;;;;;5046474;28;20242;-50
2022/10/11 05:26:14;;;;;;;7.43;1.60;;;;;;;;;;5043755;28;20245;-48
2022/10/11 05:28:41;;;;;;;3.20;1.40;;;;;;;;;;5045414;28;20261;-44
2022/10/11 05:31:08;;;;;;;4.47;1.50;;;;;;;;;;5049388;28;21400;-47
2022/10/11 05:33:34;;;;;;;6.70;1.30;;;;;;;;;;5044576;28;20246;-50
2022/10/11 05:36:01;;;;;;;6.17;1.27;;;;;;;;;;5043476;28;20236;-50
2022/10/11 05:38:28;;;;;;;5.23;1.80;;;;;;;;;;5050216;28;20203;-50
2022/10/11 05:40:58;;;;;;;4.20;1.20;;;;;;;;;;5039807;28;20290;-57
2022/10/11 05:43:25;;;;;;;4.70;1.30;;;;;;;;;;5040886;28;20348;-58
2022/10/11 05:45:51;;;;;;;4.97;1.37;;;;;;;;;;5043895;28;20294;-57
2022/10/11 05:48:17;;;;;;;3.97;1.20;;;;;;;;;;5048609;28;20309;-55
2022/10/11 05:50:44;;;;;;;2.57;0.90;;;;;;;;;;5045273;28;20225;-56
2022/10/11 05:53:10;;;;;;;3.63;1.30;;;;;;;;;;5049511;28;20250;-58
2022/10/11 05:55:40;;;;;;;7.03;1.40;;;;;;;;;;5043734;28;20231;-57
2022/10/11 05:58:09;;;;;;;3.40;1.23;;;;;;;;;;5042759;28;20333;-54
2022/10/11 06:00:39;;;;;;;2.83;0.87;;;;;;;;;;5042191;28;20289;-53
2022/10/11 06:03:07;;;;;;;2.60;1.40;;;;;;;;;;5036523;28;21337;-56
2022/10/11 06:05:34;;;;;;;4.13;1.30;;;;;;;;;;5046588;28;20252;-54
2022/10/11 06:08:01;;;;;;;5.53;1.47;;;;;;;;;;5048394;28;20722;-53
2022/10/11 06:10:27;;;;;;;3.27;1.10;;;;;;;;;;5047510;28;20241;-53
2022/10/11 06:12:54;;;;;;;3.80;1.00;;;;;;;;;;5043530;28;20223;-52
2022/10/11 06:15:20;;;;;;;5.45;1.45;;;;;;;;;;5037701;28;20227;-57
2022/10/11 06:17:47;;;;;;;3.03;1.33;;;;;;;;;;5044016;28;20261;-56
2022/10/11 06:20:13;;;;;;;3.42;1.30;;;;;;;;;;5040283;28;20222;-59
2022/10/11 06:22:39;;;;;;;5.85;1.38;;;;;;;;;;5045588;28;20792;-56
2022/10/11 06:25:06;;;;;;;5.72;1.35;;;;;;;;;;5043318;28;20198;-56
2022/10/11 06:27:32;;;;;;;6.03;1.20;;;;;;;;;;5034813;28;20253;-55
2022/10/11 06:29:59;;;;;;;2.75;1.10;;;;;;;;;;5040647;28;20233;-56
2022/10/11 06:32:26;;;;;;;5.18;1.20;;;;;;;;;;5042789;28;20246;-59
2022/10/11 06:34:52;;;;;;;5.03;2.00;;;;;;;;;;5041848;28;20199;-55
2022/10/11 06:37:19;;;;;;;2.22;1.00;;;;;;;;;;5047515;28;20194;-59
2022/10/11 06:39:45;;;;;;;2.05;1.20;;;;;;;;;;5044295;28;20199;-60
2022/10/11 06:42:12;;;;;;;2.95;1.05;;;;;;;;;;5038861;28;20417;-60
2022/10/11 06:44:38;;;;;;;5.15;1.00;;;;;;;;;;5042244;28;20257;-59
2022/10/11 06:47:05;;;;;;;3.53;1.25;;;;;;;;;;5039239;28;20256;-58
2022/10/11 06:49:32;;;;;;;2.83;1.10;;;;;;;;;;5041990;28;20234;-58
2022/10/11 06:51:58;;;;;;;3.45;1.00;;;;;;;;;;5039549;28;20227;-56
2022/10/11 06:54:25;;;;;;;3.08;1.20;;;;;;;;;;5048027;28;20246;-57
2022/10/11 06:56:51;;;;;;;4.00;1.15;;;;;;;;;;5045170;28;20226;-59
2022/10/11 06:59:18;;;;;;;2.42;1.00;;;;;;;;;;5040406;28;20202;-56
2022/10/11 07:01:44;;;;;;;2.05;1.00;;;;;;;;;;5043990;28;20195;-56
2022/10/11 07:04:11;;;;;;;4.95;1.10;;;;;;;;;;5043981;28;20231;-55
2022/10/11 07:06:39;;;;;;;2.95;1.45;;;;;;;;;;5035628;28;20231;-52
2022/10/11 07:09:06;;;;;;;2.40;1.02;;;;;;;;;;5037819;28;20250;-47
2022/10/11 07:11:32;;;;;;;2.20;1.20;;;;;;;;;;5040549;28;20286;-48
2022/10/11 07:14:01;;;;;;;4.53;1.50;;;;;;;;;;5040582;28;20419;-49
2022/10/11 07:16:27;;;;;;;6.20;1.60;;;;;;;;;;5042105;28;20202;-50
2022/10/11 07:18:56;;;;;;;2.53;1.17;;;;;;;;;;5036448;28;20195;-55
2022/10/11 07:21:27;;;;;;;5.95;1.52;;;;;;;;;;5043708;28;20724;-49
2022/10/11 07:23:53;;;;;;;2.42;1.17;;;;;;;;;;5043908;28;20250;-49
2022/10/11 07:26:20;;;;;;;4.80;1.40;;;;;;;;;;5037452;28;20253;-48
2022/10/11 07:28:46;;;;;;;5.35;1.48;;;;;;;;;;5040961;28;20281;-49
2022/10/11 07:31:18;;;;;;;2.72;1.27;;;;;;;;;;5032695;28;20243;-48
2022/10/11 07:33:44;;;;;;;3.97;1.38;;;;;;;;;;5038200;28;20255;-49
2022/10/11 07:36:11;;;;;;;3.95;1.40;;;;;;;;;;5042371;28;20230;-54
2022/10/11 07:38:39;;;;;;;3.20;1.20;;;;;;;;;;5044213;28;20285;-49
2022/10/11 07:41:07;;;;;;;8.68;1.50;;;;;;;;;;5035092;28;20895;-51
2022/10/11 07:43:34;;;;;;;2.70;1.48;;;;;;;;;;5053095;28;20297;-51
2022/10/11 07:46:02;;;;;;;5.15;1.33;;;;;;;;;;5039502;28;20690;-49
2022/10/11 07:48:31;;;;;;;3.22;1.30;;;;;;;;;;5044473;28;20221;-51
2022/10/11 07:51:18;;;;;;;4.63;1.20;;;;;;;;;;5042008;28;20241;-48
2022/10/11 07:53:54;;;;;;;2.80;1.35;;;;;;;;;;5042600;28;20345;-49
2022/10/11 07:56:23;;;;;;;2.50;1.20;;;;;;;;;;5043214;28;20222;-51
2022/10/11 07:58:54;;;;;;;3.00;1.30;;;;;;;;;;5047163;28;20230;-49
2022/10/11 08:01:21;;;;;;;2.17;1.38;;;;;;;;;;5038018;28;20221;-53
2022/10/11 08:03:48;;;;;;;2.20;1.40;;;;;;;;;;5041248;28;20716;-49
2022/10/11 08:06:17;;;;;;;3.58;1.13;;;;;;;;;;5048739;28;20205;-53
2022/10/11 08:08:43;;;;;;;2.83;1.10;;;;;;;;;;5047820;28;20253;-53
2022/10/11 08:11:18;;;;;;;5.88;2.25;;;;;;;;;;5038601;28;20286;-49
2022/10/11 08:13:45;;;;;;;1.98;1.15;;;;;;;;;;5050031;28;20245;-49
2022/10/11 08:16:12;;;;;;;1.92;1.30;;;;;;;;;;5045235;28;20239;-53
2022/10/11 08:18:38;;;;;;;2.97;1.30;;;;;;;;;;5042234;28;20261;-50
2022/10/11 08:21:13;;;;;;;4.07;1.27;;;;;;;;;;5046618;28;20195;-53
2022/10/11 08:23:40;;;;;;;4.35;1.30;;;;;;;;;;5046428;28;20222;-54
2022/10/11 08:26:08;;;;;;;2.85;1.17;;;;;;;;;;5044194;28;20269;-50
2022/10/11 08:28:35;;;;;;;2.42;1.13;;;;;;;;;;5042658;28;20215;-51
2022/10/11 08:31:02;;;;;;;1.40;0.95;;;;;;;;;;5044172;28;20556;-48
2022/10/11 08:33:29;;;;;;;4.60;1.40;;;;;;;;;;5049023;28;20272;-48
2022/10/11 08:35:57;;;;;;;1.80;1.00;;;;;;;;;;5048262;28;20667;-49
2022/10/11 08:38:23;;;;;;;1.75;1.17;;;;;;;;;;5044068;28;20199;-54
2022/10/11 08:40:51;;;;;;;3.85;1.30;;;;;;;;;;5044303;28;20230;-48
2022/10/11 08:43:36;;;;;;;2.30;1.15;;;;;;;;;;5050209;28;20219;-49
2022/10/11 08:46:03;;;;;;;2.53;1.00;;;;;;;;;;5050650;28;20994;-49
2022/10/11 08:48:40;;;;;;;2.40;1.40;;;;;;;;;;5051624;28;20226;-49
2022/10/11 08:51:34;;;;;;;3.72;1.30;;;;;;;;;;5046656;28;20677;-49
2022/10/11 08:54:03;;;;;;;2.00;1.10;;;;;;;;;;5047763;28;20772;-48
2022/10/11 08:56:35;;;;;;;5.32;1.20;;;;;;;;;;5051249;28;20277;-48
2022/10/11 08:59:10;;;;;;;2.92;1.17;;;;;;;;;;5049278;28;20233;-48
2022/10/11 09:01:42;;;;;;;2.05;1.20;;;;;;;;;;5053337;28;20236;-51
2022/10/11 09:04:12;;;;;;;1.17;0.95;;;;;;;;;;5052906;28;20215;-50
2022/10/11 09:07:05;;;;;;;1.77;1.02;;;;;;;;;;5048856;28;20249;-48
2022/10/11 09:09:55;;;;;;;4.25;1.20;;;;;;;;;;5048715;28;20215;-48
2022/10/11 09:12:32;;;;;;;1.60;0.93;;;;;;;;;;5051142;28;20585;-51
2022/10/11 09:15:29;;;;;;;2.75;1.00;;;;;;;;;;5050867;28;20227;-49
2022/10/11 09:18:24;;;;;;;2.65;1.35;;;;;;;;;;5049073;28;20888;-48
2022/10/11 09:20:57;;;;;;;2.88;1.10;;;;;;;;;;5040304;28;20623;-50
2022/10/11 09:23:37;;;;;;;1.73;1.17;;;;;;;;;;5048790;28;20273;-48
2022/10/11 09:26:06;;;;;;;1.90;1.10;;;;;;;;;;5047027;28;20210;-48
2022/10/11 09:28:48;;;;;;;1.92;0.90;;;;;;;;;;5048467;28;20269;-48
2022/10/11 09:31:15;;;;;;;3.10;1.08;;;;;;;;;;5052447;28;20198;-48
2022/10/11 09:33:44;;;;;;;1.38;1.02;;;;;;;;;;5052855;28;20619;-48
2022/10/11 09:36:46;;;;;;;2.17;1.10;;;;;;;;;;5054443;28;20279;-49
2022/10/11 09:39:32;;;;;;;1.05;0.85;;;;;;;;;;5047805;28;20186;-51
2022/10/11 09:42:18;;;;;;;2.58;1.20;;;;;;;;;;5051395;28;20213;-52
2022/10/11 09:44:49;;;;;;;2.30;1.10;;;;;;;;;;5055709;28;20243;-52
2022/10/11 09:47:23;;;;;;;2.67;1.10;;;;;;;;;;5045902;28;20286;-50
2022/10/11 09:49:53;;;;;;;1.38;1.00;;;;;;;;;;5049714;28;20306;-51
2022/10/11 09:52:22;;;;;;;2.38;1.10;;;;;;;;;;5050998;28;20202;-48
2022/10/11 09:54:50;;;;;;;1.52;1.00;;;;;;;;;;5047652;28;20230;-49
2022/10/11 09:57:23;;;;;;;2.47;1.13;;;;;;;;;;5047506;28;20609;-52
2022/10/11 10:00:20;;;;;;;2.88;1.00;;;;;;;;;;5048589;28;20260;-51
2022/10/11 10:02:51;;;;;;;1.80;1.00;;;;;;;;;;5044560;28;20276;-49
2022/10/11 10:05:26;;;;;;;3.03;1.13;;;;;;;;;;5046478;28;20195;-49
2022/10/11 10:07:58;;;;;;;1.63;1.00;;;;;;;;;;5048145;28;20267;-49
2022/10/11 10:10:52;;;;;;;2.90;1.15;;;;;;;;;;5045946;28;20676;-52
2022/10/11 10:13:48;;;;;;;1.90;0.85;;;;;;;;;;5048229;28;20253;-52
2022/10/11 10:16:24;;;;;;;1.40;1.00;;;;;;;;;;5054492;28;20316;-49
2022/10/11 10:18:52;;;;;;;2.17;1.02;;;;;;;;;;5050248;28;20289;-52
2022/10/11 10:21:26;;;;;;;1.85;0.90;;;;;;;;;;5053736;28;20229;-51
2022/10/11 10:23:55;;;;;;;1.92;1.00;;;;;;;;;;5048339;28;20241;-52
2022/10/11 10:26:24;;;;;;;1.63;1.08;;;;;;;;;;5044108;28;20289;-49
2022/10/11 10:28:57;;;;;;;2.30;0.90;;;;;;;;;;5053100;28;20252;-51
2022/10/11 10:31:36;;;;;;;1.02;0.88;;;;;;;;;;5046468;28;20206;-52
2022/10/11 10:34:30;;;;;;;2.63;1.00;;;;;;;;;;5043458;28;20730;-52
2022/10/11 10:37:03;;;;;;;0.70;0.65;;;;;;;;;;5048176;28;20226;-53
2022/10/11 10:39:49;;;;;;;1.92;0.90;;;;;;;;;;5029428;28;20569;-49
2022/10/11 10:42:18;;;;;;;1.58;1.00;;;;;;;;;;5044838;28;20230;-48
2022/10/11 10:44:55;;;;;;;1.80;0.85;;;;;;;;;;5046863;28;20529;-47
2022/10/11 10:47:48;;;;;;;1.77;0.80;;;;;;;;;;5028520;28;20356;-47
2022/10/11 10:50:20;;;;;;;1.42;1.00;;;;;;;;;;5047650;28;20257;-51
2022/10/11 10:53:08;;;;;;;2.58;0.95;;;;;;;;;;5047768;28;20219;-49
2022/10/11 10:55:44;;;;;;;2.45;0.90;;;;;;;;;;5041323;28;20472;-52
2022/10/11 10:58:26;;;;;;;1.48;0.80;;;;;;;;;;5041383;28;20222;-58
2022/10/11 11:01:10;;;;;;;1.67;1.00;;;;;;;;;;5040612;28;20237;-47
2022/10/11 11:03:43;;;;;;;1.23;0.80;;;;;;;;;;5041702;28;20638;-52
2022/10/11 11:06:19;;;;;;;1.65;0.85;;;;;;;;;;5047663;28;20230;-49
2022/10/11 11:08:55;;;;;;;1.40;0.82;;;;;;;;;;5050343;28;20296;-50
2022/10/11 11:11:27;;;;;;;2.17;0.93;;;;;;;;;;5046196;28;20241;-52
2022/10/11 11:14:12;;;;;;;2.80;0.90;;;;;;;;;;5041004;28;20248;-52
2022/10/11 11:17:11;;;;;;;0.85;0.70;;;;;;;;;;5046406;28;20310;-51
2022/10/11 11:20:02;;;;;;;1.88;1.08;;;;;;;;;;5025123;28;20512;-49
2022/10/11 11:22:41;;;;;;;1.67;1.00;;;;;;;;;;5048645;28;20265;-50
2022/10/11 11:25:28;;;;;;;1.85;0.90;;;;;;;;;;5050266;28;20227;-49
2022/10/11 11:28:30;;;;;;;1.08;0.80;;;;;;;;;;5043364;28;20241;-48
2022/10/11 11:31:29;;;;;;;1.65;1.05;;;;;;;;;;5045319;28;20204;-48
2022/10/11 11:33:59;;;;;;;1.00;0.90;;;;;;;;;;5043892;28;20758;-50
2022/10/11 11:36:43;;;;;;;2.08;0.95;;;;;;;;;;5044841;28;20735;-52
2022/10/11 11:39:16;;;;;;;0.93;0.75;;;;;;;;;;5047745;28;20222;-49
2022/10/11 11:41:47;;;;;;;1.67;0.80;;;;;;;;;;5048075;28;20305;-50
2022/10/11 11:44:25;;;;;;;1.73;0.85;;;;;;;;;;5048621;28;20251;-49
2022/10/11 11:47:03;;;;;;;1.27;0.90;;;;;;;;;;5048777;28;20268;-52
2022/10/11 11:49:34;;;;;;;0.90;0.80;;;;;;;;;;5047784;28;20273;-48
2022/10/11 11:52:02;;;;;;;1.25;0.80;;;;;;;;;;5046495;28;20211;-51
2022/10/11 11:54:46;;;;;;;1.88;0.88;;;;;;;;;;5050288;28;20269;-49
2022/10/11 11:57:27;;;;;;;1.20;0.95;;;;;;;;;;5047991;28;20230;-50
2022/10/11 12:00:02;;;;;;;1.27;1.00;;;;;;;;;;5047368;28;20230;-51
2022/10/11 12:02:35;;;;;;;1.73;0.80;;;;;;;;;;5052062;28;20222;-53
2022/10/11 12:05:04;;;;;;;1.73;0.80;;;;;;;;;;5049264;28;20530;-51
2022/10/11 12:08:04;;;;;;;1.85;1.00;;;;;;;;;;5046335;28;20241;-54
2022/10/11 12:10:37;;;;;;;1.77;0.90;;;;;;;;;;5051620;28;20254;-49
2022/10/11 12:13:43;;;;;;;1.48;0.80;;;;;;;;;;5049340;28;20458;-53
2022/10/11 12:16:12;;;;;;;1.98;1.40;;;;;;;;;;5049121;28;20238;-55
2022/10/11 12:18:59;;;;;;;1.58;0.88;;;;;;;;;;5048998;28;20223;-54
2022/10/11 12:21:35;;;;;;;1.95;0.85;;;;;;;;;;5049943;28;20202;-52
2022/10/11 12:24:04;;;;;;;1.50;1.10;;;;;;;;;;5046877;28;20218;-52
2022/10/11 12:26:34;;;;;;;2.55;1.10;;;;;;;;;;5048833;28;20246;-55
2022/10/11 12:29:42;;;;;;;5.57;1.67;;;;;;;;;;5046289;28;20269;-52
2022/10/11 12:32:10;;;;;;;2.25;0.98;;;;;;;;;;5051516;28;20194;-50
2022/10/11 12:34:41;;;;;;;1.67;0.95;;;;;;;;;;5047117;28;20246;-51
2022/10/11 12:37:16;;;;;;;1.70;1.10;;;;;;;;;;5050038;28;20198;-52
2022/10/11 12:39:54;;;;;;;2.33;0.90;;;;;;;;;;5049189;28;20198;-50
2022/10/11 12:42:27;;;;;;;2.10;0.90;;;;;;;;;;5044853;28;20234;-51
2022/10/11 12:45:12;;;;;;;2.08;0.98;;;;;;;;;;5047835;28;20675;-50
2022/10/11 12:47:50;;;;;;;2.42;0.90;;;;;;;;;;5049480;28;20678;-50
2022/10/11 12:50:19;;;;;;;1.67;0.90;;;;;;;;;;5044741;28;20306;-52
2022/10/11 12:53:24;;;;;;;1.35;0.85;;;;;;;;;;5048604;28;20247;-50
2022/10/11 12:56:06;;;;;;;1.63;1.08;;;;;;;;;;5012927;28;20238;-51
2022/10/11 12:58:42;;;;;;;1.15;0.80;;;;;;;;;;5058334;28;20211;-51
2022/10/11 13:01:13;;;;;;;2.20;1.00;;;;;;;;;;5050655;28;20195;-52
2022/10/11 13:03:42;;;;;;;0.90;0.65;;;;;;;;;;5045842;28;20292;-50
2022/10/11 13:06:24;;;;;;;1.30;0.77;;;;;;;;;;5050233;28;20683;-49
2022/10/11 13:08:55;;;;;;;2.22;0.82;;;;;;;;;;5047637;28;20318;-49
2022/10/11 13:11:24;;;;;;;1.67;0.70;;;;;;;;;;5051470;28;20222;-51
2022/10/11 13:13:55;;;;;;;2.50;0.90;;;;;;;;;;5050058;28;20285;-52
2022/10/11 13:16:25;;;;;;;3.85;1.15;;;;;;;;;;5049935;28;20233;-49
2022/10/11 13:18:58;;;;;;;4.68;1.42;;;;;;;;;;5052205;28;20281;-50
2022/10/11 13:21:31;;;;;;;2.25;1.10;;;;;;;;;;5053526;28;20237;-52
2022/10/11 13:24:08;;;;;;;0.70;0.60;;;;;;;;;;5034492;28;20258;-50
2022/10/11 13:26:34;;;;;;;2.28;0.80;;;;;;;;;;5052693;28;20638;-52
2022/10/11 13:29:01;;;;;;;1.05;0.70;;;;;;;;;;5048375;28;20310;-48
2022/10/11 13:31:27;;;;;;;3.33;0.88;;;;;;;;;;5049897;28;20203;-49
2022/10/11 13:33:55;;;;;;;2.65;1.15;;;;;;;;;;5044913;28;20245;-53
2022/10/11 13:36:25;;;;;;;1.55;0.88;;;;;;;;;;5039904;28;20273;-50
2022/10/11 13:38:55;;;;;;;1.45;0.95;;;;;;;;;;5047272;28;20650;-52
2022/10/11 13:41:21;;;;;;;2.25;0.90;;;;;;;;;;5048941;28;20729;-48
2022/10/11 13:43:48;;;;;;;1.35;0.90;;;;;;;;;;5046286;28;20253;-51
2022/10/11 13:46:23;;;;;;;1.35;0.77;;;;;;;;;;5045807;28;20219;-48
2022/10/11 13:49:01;;;;;;;0.70;0.60;;;;;;;;;;5046875;28;20264;-48
2022/10/11 13:51:35;;;;;;;0.43;0.43;;;;;;;;;;5055906;28;20236;-50
2022/10/11 13:54:07;;;;;;;3.28;1.00;;;;;;;;;;5036967;28;20242;-51
2022/10/11 13:56:47;;;;;;;1.50;0.77;;;;;;;;;;5040417;28;20199;-49
2022/10/11 13:59:18;;;;;;;2.92;0.90;;;;;;;;;;5040678;28;20226;-48
2022/10/11 14:01:45;;;;;;;2.33;0.93;;;;;;;;;;5040645;28;20465;-48
2022/10/11 14:04:16;;;;;;;4.63;1.10;;;;;;;;;;5046370;28;20257;-48
2022/10/11 14:06:55;;;;;;;1.65;0.80;;;;;;;;;;5042213;28;20219;-48
2022/10/11 14:09:25;;;;;;;3.47;0.90;;;;;;;;;;5042065;28;20222;-50
2022/10/11 14:11:53;;;;;;;1.20;0.90;;;;;;;;;;5044917;28;20226;-48
2022/10/11 14:14:38;;;;;;;2.42;0.90;;;;;;;;;;5046646;28;20214;-53
2022/10/11 14:17:05;;;;;;;2.35;0.80;;;;;;;;;;5043640;28;20666;-50
2022/10/11 14:19:31;;;;;;;3.25;1.08;;;;;;;;;;5045848;28;20619;-48
2022/10/11 14:21:57;;;;;;;2.53;0.80;;;;;;;;;;5044081;28;20685;-49
2022/10/11 14:24:24;;;;;;;2.63;0.90;;;;;;;;;;5047545;28;20215;-48
2022/10/11 14:26:52;;;;;;;3.95;1.48;;;;;;;;;;5042367;28;20237;-48
2022/10/11 14:29:23;;;;;;;3.90;1.30;;;;;;;;;;5040299;28;20670;-49
2022/10/11 14:31:50;;;;;;;3.03;1.10;;;;;;;;;;5035171;28;20191;-49
2022/10/11 14:34:19;;;;;;;2.67;1.15;;;;;;;;;;5046299;28;20265;-52
2022/10/11 14:36:46;;;;;;;3.47;1.00;;;;;;;;;;5046960;28;20198;-52
2022/10/11 14:39:15;;;;;;;1.38;0.80;;;;;;;;;;5046233;28;20218;-54
2022/10/11 14:41:41;;;;;;;2.78;1.33;;;;;;;;;;5043147;28;20195;-49
2022/10/11 14:44:08;;;;;;;3.20;0.85;;;;;;;;;;5044191;28;20711;-50
2022/10/11 14:46:34;;;;;;;2.35;0.80;;;;;;;;;;5046875;28;20311;-53
2022/10/11 14:49:01;;;;;;;2.33;0.80;;;;;;;;;;5033121;28;20230;-50
2022/10/11 14:51:31;;;;;;;2.08;0.70;;;;;;;;;;5043324;28;20599;-48
2022/10/11 14:53:57;;;;;;;1.30;0.80;;;;;;;;;;5045188;28;20242;-49
2022/10/11 14:56:23;;;;;;;2.38;0.90;;;;;;;;;;5043889;28;20226;-49
2022/10/11 14:58:50;;;;;;;1.13;0.70;;;;;;;;;;5041111;28;20218;-51
2022/10/11 15:01:16;;;;;;;2.05;0.73;;;;;;;;;;5040032;28;20329;-48
2022/10/11 15:03:43;;;;;;;1.55;0.80;;;;;;;;;;5046359;28;20647;-51
2022/10/11 15:06:17;;;;;;;0.95;0.60;;;;;;;;;;5047726;28;20322;-53
2022/10/11 15:08:43;;;;;;;2.72;0.95;;;;;;;;;;5042047;28;20234;-48
2022/10/11 15:11:11;;;;;;;2.05;1.27;;;;;;;;;;5044269;28;20652;-51